Time;durP1;ratioP1;P1;durP2;ratioP2;P2;SDS_P1;SDS_P2;PMS_P1;PMS_P2;Temp;Humidity;BMP_temperature;BMP_pressure;BME280_temperature;BME280_humidity;BME280_pressure;Samples;Min_cycle;Max_cycle;Signal;HPM_P1;HPM_P2
2023/10/09 00:01:44;;;;;;;21.00;3.80;;;;;;;10.83;100.00;97891.97;5041026;28;20040;-61
2023/10/09 00:04:11;;;;;;;16.13;3.95;;;;;;;10.86;100.00;97888.78;5033560;28;20602;-61
2023/10/09 00:06:38;;;;;;;16.60;4.03;;;;;;;10.92;100.00;97884.31;5043855;28;20074;-61
2023/10/09 00:11:56;;;;;;;13.02;3.63;;;;;;;11.05;100.00;97881.31;5039989;28;20118;-61
2023/10/09 00:14:25;;;;;;;15.10;3.88;;;;;;;11.08;100.00;97881.88;5039323;28;20519;-61
2023/10/09 00:17:38;;;;;;;14.98;3.85;;;;;;;11.08;100.00;97884.56;5040737;28;20049;-61
2023/10/09 00:19:39;;;;;;;15.55;4.07;;;;;;;11.08;100.00;97879.16;5045643;28;20084;-61
2023/10/09 00:22:20;;;;;;;17.20;3.75;;;;;;;11.05;100.00;97883.19;5038499;28;20132;-61
2023/10/09 00:25:10;;;;;;;15.57;3.72;;;;;;;11.06;100.00;97876.72;5047242;28;20055;-61
2023/10/09 00:27:42;;;;;;;13.13;3.20;;;;;;;11.13;100.00;97879.28;5029768;28;20053;-62
2023/10/09 00:30:15;;;;;;;15.95;3.85;;;;;;;10.99;100.00;97879.53;5041448;28;20083;-61
2023/10/09 00:32:50;;;;;;;20.05;4.85;;;;;;;11.03;100.00;97879.91;5043398;28;20503;-61
2023/10/09 00:35:36;;;;;;;14.13;3.80;;;;;;;11.02;100.00;97876.34;5034393;28;20045;-61
2023/10/09 00:38:14;;;;;;;16.10;3.97;;;;;;;11.01;100.00;97877.44;5046042;28;20527;-61
2023/10/09 00:40:45;;;;;;;13.45;3.55;;;;;;;11.00;100.00;97870.38;5036011;28;20036;-62
2023/10/09 00:43:15;;;;;;;18.30;3.80;;;;;;;11.09;100.00;97861.84;5042223;28;20060;-61
2023/10/09 00:45:44;;;;;;;17.90;5.05;;;;;;;11.16;100.00;97866.03;5039267;28;20043;-60
2023/10/09 00:48:14;;;;;;;17.42;4.53;;;;;;;11.29;100.00;97864.94;5048417;28;20069;-61
2023/10/09 00:50:52;;;;;;;15.20;4.20;;;;;;;11.35;100.00;97857.69;5047738;28;20044;-61
2023/10/09 00:53:30;;;;;;;18.55;4.47;;;;;;;11.27;100.00;97858.91;5046525;28;20048;-61
2023/10/09 00:56:11;;;;;;;19.02;3.75;;;;;;;11.40;99.90;97849.66;5038911;28;20045;-60
2023/10/09 00:58:37;;;;;;;16.65;5.28;;;;;;;11.48;99.18;97842.16;5036089;28;20124;-61
2023/10/09 01:01:04;;;;;;;15.35;3.75;;;;;;;11.56;98.72;97850.72;5042787;28;20505;-60
2023/10/09 01:03:33;;;;;;;14.00;3.85;;;;;;;11.32;100.00;97844.63;5042383;28;20528;-60
2023/10/09 01:11:18;;;;;;;20.42;3.53;;;;;;;11.20;100.00;97841.97;5034765;28;20041;-61
2023/10/09 01:13:52;;;;;;;14.52;2.97;;;;;;;11.23;100.00;97844.22;5054559;28;20048;-60
2023/10/09 01:16:22;;;;;;;16.85;5.00;;;;;;;11.16;100.00;97830.81;5032413;28;20040;-61
2023/10/09 01:18:59;;;;;;;18.52;3.95;;;;;;;11.15;100.00;97831.06;5041352;28;20107;-61
2023/10/09 01:21:26;;;;;;;13.00;4.47;;;;;;;11.12;100.00;97826.94;5048002;28;20524;-61
2023/10/09 01:24:03;;;;;;;18.60;3.75;;;;;;;11.13;100.00;97831.28;5040266;28;20037;-61
2023/10/09 01:26:39;;;;;;;15.23;4.47;;;;;;;11.14;100.00;97824.84;5050270;28;20561;-61
2023/10/09 01:29:14;;;;;;;15.75;4.25;;;;;;;11.22;100.00;97826.31;5048339;28;20047;-61
2023/10/09 01:31:51;;;;;;;16.75;4.22;;;;;;;11.34;100.00;97819.97;5033059;28;20041;-61
2023/10/09 01:34:49;;;;;;;17.98;3.47;;;;;;;11.43;100.00;97823.94;5039508;28;20047;-61
2023/10/09 01:37:19;;;;;;;12.18;3.42;;;;;;;11.49;100.00;97822.94;5048588;28;20068;-61
2023/10/09 01:39:48;;;;;;;15.25;3.50;;;;;;;11.56;100.00;97831.75;5049731;28;20116;-61
2023/10/09 01:42:24;;;;;;;15.93;3.63;;;;;;;11.62;99.67;97832.66;5051436;28;20041;-61
2023/10/09 01:44:51;;;;;;;14.55;4.18;;;;;;;11.66;98.44;97835.69;5048088;28;20047;-61
2023/10/09 01:47:18;;;;;;;13.63;3.75;;;;;;;11.54;100.00;97825.72;5039973;28;20041;-61
2023/10/09 01:49:48;;;;;;;13.57;4.28;;;;;;;11.40;100.00;97824.44;5040124;28;20049;-61
2023/10/09 01:52:16;;;;;;;12.27;4.15;;;;;;;11.37;100.00;97816.78;5049477;28;20123;-62
2023/10/09 01:54:48;;;;;;;12.30;3.55;;;;;;;11.31;100.00;97819.41;5044825;28;20037;-62
2023/10/09 01:57:22;;;;;;;20.73;4.55;;;;;;;11.22;100.00;97807.34;5050321;28;20041;-61
2023/10/09 01:59:53;;;;;;;15.60;4.20;;;;;;;11.26;100.00;97811.19;5043381;28;20044;-61
2023/10/09 02:02:26;;;;;;;14.18;3.67;;;;;;;11.34;100.00;97806.41;5036842;28;20041;-61
2023/10/09 02:07:51;;;;;;;17.23;5.15;;;;;;;11.47;99.75;97802.56;5039931;28;20132;-62
2023/10/09 02:10:31;;;;;;;19.75;4.53;;;;;;;11.57;98.64;97803.53;5052885;28;20102;-61
2023/10/09 02:13:09;;;;;;;21.65;3.50;;;;;;;11.73;98.07;97800.25;5042111;28;20037;-60
2023/10/09 02:19:07;;;;;;;17.08;4.60;;;;;;;11.77;97.64;97795.97;5040569;28;20041;-61
2023/10/09 02:26:40;;;;;;;20.08;4.70;;;;;;;11.71;98.28;97789.63;5043081;28;20033;-62
2023/10/09 02:31:46;;;;;;;17.80;4.72;;;;;;;11.77;97.66;97791.38;5048892;28;20131;-61
2023/10/09 02:34:15;;;;;;;13.68;4.05;;;;;;;11.66;98.80;97795.00;5037110;28;20045;-61
2023/10/09 02:36:42;;;;;;;15.05;3.50;;;;;;;11.57;99.36;97791.88;5045147;28;20048;-61
2023/10/09 02:39:23;;;;;;;12.63;4.13;;;;;;;11.49;100.00;97787.69;5039619;28;20043;-62
2023/10/09 02:41:51;;;;;;;;;;;;;;;11.61;99.10;97789.50;5052906;28;20169;-61
2023/10/09 02:44:24;;;;;;;15.57;3.20;;;;;;;11.73;98.17;97792.09;5045363;28;19928;-61
2023/10/09 02:46:51;;;;;;;12.57;3.13;;;;;;;11.82;97.26;97799.56;5044548;28;20610;-61
2023/10/09 02:49:18;;;;;;;13.45;3.38;;;;;;;11.87;97.05;97787.16;5043730;28;20053;-62
2023/10/09 02:51:52;;;;;;;10.50;3.05;;;;;;;11.93;96.96;97788.84;5037878;28;20044;-61
2023/10/09 02:57:06;;;;;;;18.05;4.55;;;;;;;12.01;96.50;97793.03;5046158;28;20770;-62
2023/10/09 02:59:33;;;;;;;12.40;3.58;;;;;;;11.91;97.36;97775.53;5042775;28;20474;-61
2023/10/09 03:02:00;;;;;;;16.95;3.58;;;;;;;11.99;96.73;97787.88;5043726;28;20455;-61
2023/10/09 03:04:31;;;;;;;16.10;3.60;;;;;;;12.06;96.48;97783.09;5042870;28;20051;-61
2023/10/09 03:06:58;;;;;;;18.77;3.45;;;;;;;12.07;95.87;97779.31;5043313;28;20049;-61
2023/10/09 03:09:28;;;;;;;12.77;3.47;;;;;;;12.08;95.95;97780.13;5049453;28;20083;-61
2023/10/09 03:12:03;;;;;;;21.53;4.13;;;;;;;12.14;95.20;97772.88;5036091;28;20051;-61
2023/10/09 03:14:41;;;;;;;14.68;3.97;;;;;;;12.20;94.75;97775.41;5051027;28;20041;-62
2023/10/09 03:17:11;;;;;;;14.27;2.72;;;;;;;12.26;94.00;97770.03;5036374;28;20040;-62
2023/10/09 03:19:39;;;;;;;12.07;3.38;;;;;;;12.31;93.53;97767.38;5053481;28;20044;-61
2023/10/09 03:22:10;;;;;;;12.25;2.90;;;;;;;12.36;93.07;97759.28;5045384;28;20069;-62
2023/10/09 03:24:39;;;;;;;13.40;3.95;;;;;;;12.32;93.62;97761.69;5036698;28;20045;-61
2023/10/09 03:27:05;;;;;;;11.32;2.63;;;;;;;12.39;93.06;97758.81;5034595;28;20064;-61
2023/10/09 03:29:33;;;;;;;15.90;4.00;;;;;;;12.34;93.14;97756.00;5032289;28;20143;-61
2023/10/09 03:32:00;;;;;;;13.85;4.07;;;;;;;12.39;92.93;97755.25;5032254;28;20040;-61
2023/10/09 03:34:27;;;;;;;16.25;3.58;;;;;;;12.34;92.96;97747.84;5048940;28;20037;-60
2023/10/09 03:37:03;;;;;;;13.88;3.35;;;;;;;12.30;93.65;97752.16;5045356;28;20120;-61
2023/10/09 03:39:47;;;;;;;14.95;4.15;;;;;;;12.33;93.10;97760.63;5041152;28;20051;-61
2023/10/09 03:42:19;;;;;;;15.95;3.95;;;;;;;12.41;92.59;97753.09;5033724;28;20037;-61
2023/10/09 03:44:57;;;;;;;16.63;3.55;;;;;;;12.27;93.85;97750.75;5037010;28;20041;-62
2023/10/09 03:47:27;;;;;;;13.98;3.08;;;;;;;12.19;94.43;97751.22;5038914;28;20083;-61
2023/10/09 03:49:53;;;;;;;19.60;3.83;;;;;;;12.16;94.91;97749.03;5048085;28;20045;-61
2023/10/09 03:52:25;;;;;;;11.98;2.85;;;;;;;12.11;95.04;97752.47;5038688;28;20128;-61
2023/10/09 03:54:52;;;;;;;15.75;4.13;;;;;;;12.05;95.42;97757.03;5046508;28;20091;-60
2023/10/09 03:57:19;;;;;;;15.45;3.75;;;;;;;12.01;95.63;97752.34;5040113;28;20056;-61
2023/10/09 03:59:51;;;;;;;16.13;3.10;;;;;;;11.93;96.49;97759.00;5043041;28;20040;-61
2023/10/09 04:02:18;;;;;;;19.50;3.53;;;;;;;11.91;96.17;97755.72;5036381;28;20038;-61
2023/10/09 04:04:46;;;;;;;15.93;4.05;;;;;;;11.95;95.60;97760.38;5040443;28;20063;-61
2023/10/09 04:07:17;;;;;;;13.60;3.55;;;;;;;12.07;94.56;97764.91;5040195;28;20033;-61
2023/10/09 04:10:23;;;;;;;13.60;3.17;;;;;;;12.07;94.24;97759.50;5041048;28;20135;-61
2023/10/09 04:12:39;;;;;;;15.35;3.33;;;;;;;12.03;94.93;97761.88;5036656;28;20061;-61
2023/10/09 04:15:14;;;;;;;15.35;3.80;;;;;;;12.04;94.69;97758.06;5041914;28;20037;-61
2023/10/09 04:17:43;;;;;;;19.67;4.35;;;;;;;12.00;95.31;97756.09;5034290;28;20053;-62
2023/10/09 04:22:59;;;;;;;15.20;4.03;;;;;;;12.12;94.26;97759.53;5039563;28;20049;-62
2023/10/09 04:25:28;;;;;;;13.75;2.90;;;;;;;12.09;94.49;97760.06;5040500;28;20580;-61
2023/10/09 04:28:08;;;;;;;10.45;3.03;;;;;;;12.07;94.76;97756.78;5040811;28;20124;-61
2023/10/09 04:30:53;;;;;;;15.60;3.43;;;;;;;12.05;94.97;97767.03;5036979;28;20577;-62
2023/10/09 04:42:19;;;;;;;11.07;3.10;;;;;;;11.56;98.42;97763.94;5034664;28;20049;-61
2023/10/09 04:44:29;;;;;;;14.02;3.50;;;;;;;11.68;97.07;97765.72;5041288;28;20682;-61
2023/10/09 05:03:07;;;;;;;17.60;4.13;;;;;;;11.82;96.46;97761.59;5048723;28;20126;-61
2023/10/09 05:08:21;;;;;;;17.40;3.72;;;;;;;11.99;94.53;97771.59;5040857;28;20040;-62
2023/10/09 05:16:25;;;;;;;12.68;4.15;;;;;;;12.20;93.01;97764.53;5051545;28;20106;-61
2023/10/09 05:18:57;;;;;;;13.50;3.08;;;;;;;12.13;93.39;97766.63;5037044;28;20583;-62
2023/10/09 05:24:18;;;;;;;10.57;3.50;;;;;;;12.27;92.31;97767.06;5037970;28;20037;-61
2023/10/09 05:29:24;;;;;;;15.07;3.63;;;;;;;12.07;93.89;97764.91;5031917;28;20056;-62
2023/10/09 05:34:34;;;;;;;13.52;2.90;;;;;;;12.18;93.18;97774.84;5040765;28;20060;-61
2023/10/09 05:37:17;;;;;;;31.27;5.17;;;;;;;12.07;94.11;97768.47;5045549;28;20048;-61
2023/10/09 05:39:58;;;;;;;14.02;3.28;;;;;;;12.06;94.43;97774.94;5040869;28;20048;-61
2023/10/09 05:42:30;;;;;;;15.35;3.92;;;;;;;12.20;92.63;97769.97;5048892;28;20083;-61
2023/10/09 05:47:56;;;;;;;19.87;4.87;;;;;;;12.39;91.00;97766.94;5035742;28;20045;-61
2023/10/09 06:03:48;;;;;;;13.57;3.88;;;;;;;12.34;92.81;97761.44;5038339;28;20065;-61
2023/10/09 06:06:32;;;;;;;16.65;4.60;;;;;;;12.36;92.77;97762.81;5034833;28;20041;-61
2023/10/09 06:11:56;;;;;;;15.73;3.38;;;;;;;12.58;91.85;97769.31;5038196;28;20716;-61
2023/10/09 06:17:01;;;;;;;18.83;3.45;;;;;;;12.84;90.00;97770.41;5042484;28;20500;-60
2023/10/09 06:19:31;;;;;;;12.00;3.05;;;;;;;12.99;88.88;97775.16;5046077;28;20037;-61
2023/10/09 06:24:42;;;;;;;15.50;3.50;;;;;;;13.42;85.73;97781.75;5031439;28;20115;-61
2023/10/09 06:34:52;;;;;;;9.65;2.80;;;;;;;13.52;88.06;97795.44;5042217;28;20142;-61
2023/10/09 06:45:14;;;;;;;14.65;3.80;;;;;;;13.37;89.89;97798.84;5038374;28;20051;-61
2023/10/09 06:47:42;;;;;;;16.17;4.82;;;;;;;13.34;90.81;97802.91;5039529;28;20118;-62
2023/10/09 06:53:19;;;;;;;12.32;3.80;;;;;;;13.33;91.14;97803.97;5032378;28;20681;-61
2023/10/09 06:56:04;;;;;;;13.55;3.20;;;;;;;13.37;90.98;97793.41;5045998;28;20052;-61
2023/10/09 06:58:41;;;;;;;13.63;4.38;;;;;;;13.43;91.61;97796.97;5041719;28;20567;-61
2023/10/09 07:01:19;;;;;;;12.05;2.92;;;;;;;13.50;90.72;97800.34;5041203;28;20052;-61
2023/10/09 07:03:52;;;;;;;15.68;3.53;;;;;;;13.60;90.22;97814.00;5040936;28;20059;-61
2023/10/09 07:17:00;;;;;;;13.60;3.40;;;;;;;14.02;89.76;97803.41;5041013;28;20041;-61
2023/10/09 07:22:02;;;;;;;13.50;2.83;;;;;;;14.17;88.86;97813.53;5047008;28;20048;-61
2023/10/09 07:24:49;;;;;;;15.75;3.72;;;;;;;14.24;88.91;97810.59;5046285;28;20047;-61
2023/10/09 07:27:17;;;;;;;18.90;4.13;;;;;;;14.36;88.73;97807.63;5044896;28;20414;-61
2023/10/09 07:29:50;;;;;;;11.43;3.85;;;;;;;14.39;88.49;97809.81;5046515;28;20565;-61
2023/10/09 07:32:20;;;;;;;14.18;4.18;;;;;;;14.52;88.09;97812.06;5039515;28;20128;-61
2023/10/09 07:34:57;;;;;;;;;;;;;;;14.62;87.99;97807.72;5046837;28;20511;-61
2023/10/09 07:37:24;;;;;;;13.68;3.97;;;;;;;14.65;87.86;97807.19;5045145;28;19947;-61
2023/10/09 07:39:57;;;;;;;20.65;4.65;;;;;;;14.72;87.55;97810.50;5050468;28;20661;-61
2023/10/09 07:48:00;;;;;;;16.10;3.40;;;;;;;15.01;87.05;97810.06;5046708;28;20067;-61
2023/10/09 07:50:40;;;;;;;15.27;3.55;;;;;;;15.08;86.97;97818.75;5043953;28;20044;-61
2023/10/09 07:53:26;;;;;;;13.55;3.20;;;;;;;15.13;86.79;97809.78;5045687;28;20048;-61
2023/10/09 07:56:06;;;;;;;13.43;3.33;;;;;;;15.24;86.33;97812.50;5033138;28;20600;-61
2023/10/09 07:58:45;;;;;;;13.88;2.97;;;;;;;15.31;86.41;97813.06;5033421;28;20045;-61
2023/10/09 08:01:16;;;;;;;11.60;3.45;;;;;;;15.47;85.22;97820.16;5035127;28;20194;-62
2023/10/09 08:03:46;;;;;;;8.48;2.60;;;;;;;15.63;84.95;97822.91;5046784;28;20076;-62
2023/10/09 08:12:13;;;;;;;17.15;3.45;;;;;;;15.97;84.52;97825.06;5032967;28;20065;-62
2023/10/09 08:14:43;;;;;;;;;;;;;;;16.10;84.15;97825.56;5037626;28;20565;-62
2023/10/09 08:17:16;;;;;;;14.05;3.65;;;;;;;16.18;83.86;97835.91;5043061;28;19933;-61
2023/10/09 08:19:53;;;;;;;14.45;3.13;;;;;;;16.30;83.25;97834.81;5038745;28;20075;-61
2023/10/09 08:24:57;;;;;;;12.82;3.42;;;;;;;16.60;81.27;97827.59;5035546;28;20766;-61
2023/10/09 08:27:47;;;;;;;17.67;3.33;;;;;;;16.83;77.45;97830.75;5042393;28;20033;-61
2023/10/09 08:33:02;;;;;;;18.02;4.25;;;;;;;17.93;65.32;97823.38;5045629;28;20102;-61
2023/10/09 08:35:47;;;;;;;16.15;3.03;;;;;;;18.21;64.50;97826.41;5035329;28;20053;-61
2023/10/09 08:38:17;;;;;;;21.60;4.05;;;;;;;18.45;62.06;97826.41;5035936;28;20126;-61
2023/10/09 08:40:46;;;;;;;16.23;4.00;;;;;;;18.53;61.39;97821.38;5038074;28;20044;-61
2023/10/09 08:43:17;;;;;;;17.63;3.85;;;;;;;18.68;59.58;97821.19;5040789;28;20048;-62
2023/10/09 08:45:48;;;;;;;18.27;3.70;;;;;;;18.83;59.33;97822.91;5044001;28;20575;-61
2023/10/09 08:48:18;;;;;;;18.40;2.80;;;;;;;18.81;60.37;97827.06;5035240;28;20041;-62
2023/10/09 08:50:49;;;;;;;14.65;3.00;;;;;;;18.95;59.10;97830.69;5042031;28;20754;-61
2023/10/09 08:53:16;;;;;;;14.43;3.25;;;;;;;18.89;59.88;97828.31;5032888;28;20042;-61
2023/10/09 08:55:43;;;;;;;17.70;3.83;;;;;;;18.88;60.10;97823.94;5032091;28;20111;-61
2023/10/09 08:58:20;;;;;;;15.05;2.22;;;;;;;18.83;59.93;97825.66;5025172;28;20164;-61
2023/10/09 09:00:47;;;;;;;14.23;2.47;;;;;;;18.90;58.90;97828.03;5034733;28;20049;-61
2023/10/09 09:03:22;;;;;;;16.48;3.58;;;;;;;18.94;59.20;97836.50;5033956;28;20099;-61
2023/10/09 09:06:00;;;;;;;16.90;3.45;;;;;;;18.92;59.74;97838.69;5046742;28;20067;-61
2023/10/09 09:08:29;;;;;;;23.13;4.20;;;;;;;18.95;60.12;97844.41;5032080;28;20037;-61
2023/10/09 09:11:12;;;;;;;17.05;3.42;;;;;;;18.95;60.15;97840.88;5031434;28;20056;-61
2023/10/09 09:13:49;;;;;;;17.40;3.10;;;;;;;18.97;59.85;97852.34;5024895;28;20055;-61
2023/10/09 09:16:29;;;;;;;19.52;3.92;;;;;;;18.98;60.05;97849.31;5033241;28;20585;-61
2023/10/09 09:19:04;;;;;;;15.05;2.80;;;;;;;19.05;59.72;97856.38;5033746;28;20044;-62
2023/10/09 09:21:39;;;;;;;18.83;4.43;;;;;;;19.08;60.23;97859.38;5043334;28;20473;-61
2023/10/09 09:24:30;;;;;;;17.77;4.82;;;;;;;19.16;59.41;97857.06;5035830;28;20041;-61
2023/10/09 09:27:18;;;;;;;15.38;3.65;;;;;;;19.18;59.80;97865.81;5033070;28;20075;-62
2023/10/09 09:29:54;;;;;;;18.88;3.00;;;;;;;19.20;61.54;97867.16;5035848;28;20053;-61
2023/10/09 09:32:35;;;;;;;17.85;4.05;;;;;;;19.23;62.00;97868.47;5034079;28;20088;-62
2023/10/09 09:35:04;;;;;;;9.50;2.63;;;;;;;19.32;63.01;97871.38;5044560;28;20123;-62
2023/10/09 09:40:29;;;;;;;11.95;3.50;;;;;;;19.45;63.15;97869.78;5044081;28;20048;-62
2023/10/09 09:43:13;;;;;;;14.07;3.30;;;;;;;19.56;61.63;97862.22;5045764;28;20119;-62
2023/10/09 09:45:46;;;;;;;16.30;3.20;;;;;;;19.68;61.54;97859.81;5039295;28;20052;-61
2023/10/09 09:48:15;;;;;;;15.35;3.00;;;;;;;19.82;61.72;97859.88;5039521;28;20512;-61
2023/10/09 09:50:44;;;;;;;10.20;3.60;;;;;;;19.99;61.44;97864.00;5045512;28;20060;-62
2023/10/09 09:53:16;;;;;;;17.92;3.97;;;;;;;20.20;59.44;97869.16;5030458;28;22542;-62
2023/10/09 09:56:00;;;;;;;12.40;3.17;;;;;;;20.55;57.53;97869.56;5038940;28;20049;-62
2023/10/09 09:58:41;;;;;;;13.47;2.73;;;;;;;20.84;56.86;97868.44;5039416;28;20054;-61
2023/10/09 10:01:16;;;;;;;14.57;4.15;;;;;;;21.04;55.96;97864.44;5043583;28;20073;-61
2023/10/09 10:03:50;;;;;;;15.30;3.10;;;;;;;21.21;54.18;97874.00;5044426;28;20057;-61
2023/10/09 10:06:21;;;;;;;14.30;2.92;;;;;;;21.35;53.67;97864.88;5037893;28;20464;-61
2023/10/09 10:08:51;;;;;;;10.68;2.47;;;;;;;21.41;52.65;97869.94;5041217;28;20051;-61
2023/10/09 10:11:44;;;;;;;11.53;2.33;;;;;;;21.44;52.76;97879.53;5036507;28;20050;-62
2023/10/09 10:14:21;;;;;;;11.73;2.35;;;;;;;21.48;52.11;97871.47;5041898;28;20037;-61
2023/10/09 10:17:16;;;;;;;18.70;3.42;;;;;;;21.49;52.00;97868.38;5042969;28;20064;-61
2023/10/09 10:22:48;;;;;;;11.07;3.78;;;;;;;21.53;50.92;97863.06;5042679;28;20056;-61
2023/10/09 10:25:35;;;;;;;13.35;3.08;;;;;;;21.48;50.05;97866.75;5041206;28;20041;-61
2023/10/09 10:28:28;;;;;;;13.15;3.38;;;;;;;21.57;48.79;97866.84;5042839;28;20079;-61
2023/10/09 10:30:55;;;;;;;12.73;3.10;;;;;;;21.65;47.90;97857.81;5035468;28;20055;-61
2023/10/09 10:33:24;;;;;;;8.50;2.90;;;;;;;21.62;47.03;97854.84;5028911;28;20061;-61
2023/10/09 10:38:34;;;;;;;10.55;2.63;;;;;;;21.62;46.22;97836.41;5048896;28;20040;-62
2023/10/09 10:41:16;;;;;;;8.00;2.25;;;;;;;21.70;46.16;97849.41;5038910;28;20040;-62
2023/10/09 10:46:30;;;;;;;14.00;2.85;;;;;;;21.68;44.71;97859.94;5040926;28;20037;-62
2023/10/09 10:49:20;;;;;;;17.25;3.05;;;;;;;21.74;45.32;97852.38;5051786;28;20044;-62
2023/10/09 10:51:49;;;;;;;10.27;2.88;;;;;;;21.76;45.64;97863.09;5033135;28;20052;-62
2023/10/09 10:57:03;;;;;;;8.02;2.63;;;;;;;21.86;43.86;97851.00;5039928;28;20048;-62
2023/10/09 10:59:36;;;;;;;11.10;2.85;;;;;;;22.01;44.83;97858.06;5034482;28;20049;-61
2023/10/09 11:04:43;;;;;;;11.07;2.80;;;;;;;22.31;43.61;97858.38;5041092;28;20040;-61
2023/10/09 11:07:24;;;;;;;10.65;3.33;;;;;;;22.48;43.08;97860.38;5038393;28;20106;-61
2023/10/09 11:15:46;;;;;;;11.13;2.58;;;;;;;22.47;40.89;97870.63;5029098;28;20660;-61
2023/10/09 11:18:22;;;;;;;10.73;2.67;;;;;;;22.30;40.92;97870.53;5033623;28;20127;-62
2023/10/09 11:23:36;;;;;;;12.63;2.75;;;;;;;22.09;40.66;97865.56;5034789;28;20040;-61
2023/10/09 11:29:16;;;;;;;7.55;2.60;;;;;;;22.07;40.92;97863.13;5038526;28;20275;-62
2023/10/09 11:32:01;;;;;;;10.00;3.20;;;;;;;21.92;40.74;97855.25;5034819;28;20047;-61
2023/10/09 11:34:31;;;;;;;9.32;2.85;;;;;;;21.98;40.96;97836.63;5034404;28;20418;-61
2023/10/09 11:37:12;;;;;;;9.15;2.67;;;;;;;21.95;39.75;97838.09;5034380;28;20048;-61
2023/10/09 11:39:50;;;;;;;12.27;2.95;;;;;;;22.01;40.54;97823.03;5036633;28;20056;-62
2023/10/09 11:42:37;;;;;;;13.15;3.70;;;;;;;;;;5041284;28;20049;-61
2023/10/09 11:45:20;;;;;;;9.32;3.05;;;;;;;21.99;39.71;97846.53;5038855;28;20137;-62
2023/10/09 11:48:00;;;;;;;14.77;3.40;;;;;;;21.91;37.99;97846.19;5044196;28;20067;-62
2023/10/09 11:55:52;;;;;;;16.20;3.65;;;;;;;21.99;38.80;97839.06;5045548;28;20095;-61
2023/10/09 11:58:23;;;;;;;11.70;3.17;;;;;;;21.95;37.95;97836.16;5039683;28;20133;-62
2023/10/09 12:00:56;;;;;;;7.35;3.10;;;;;;;21.92;38.53;97823.00;5045009;28;20052;-62
2023/10/09 12:03:30;;;;;;;12.00;3.42;;;;;;;21.99;37.37;97808.75;5044381;28;20049;-61
2023/10/09 12:05:57;;;;;;;12.15;3.58;;;;;;;21.93;39.01;97807.28;5024613;28;20052;-61
2023/10/09 12:08:26;;;;;;;13.02;3.47;;;;;;;21.87;40.24;97792.81;5029066;28;20115;-61
2023/10/09 12:10:57;;;;;;;9.05;3.35;;;;;;;21.88;39.92;97794.44;5044713;28;20041;-62
2023/10/09 12:13:24;;;;;;;15.77;4.03;;;;;;;22.10;38.59;97795.50;5041548;28;20045;-61
2023/10/09 12:15:52;;;;;;;10.57;3.53;;;;;;;22.19;38.50;97792.78;5042695;28;20056;-61
2023/10/09 12:18:23;;;;;;;9.25;3.28;;;;;;;22.29;36.85;97791.69;5018119;28;20436;-62
2023/10/09 12:20:51;;;;;;;11.60;4.93;;;;;;;22.29;37.13;97788.94;5021843;28;20052;-61
2023/10/09 12:23:20;;;;;;;11.65;3.35;;;;;;;22.41;37.37;97783.59;5022898;28;20047;-62
2023/10/09 12:25:50;;;;;;;8.73;3.47;;;;;;;22.48;36.48;97772.09;5025963;28;20562;-61
2023/10/09 12:28:20;;;;;;;10.63;3.40;;;;;;;22.55;35.53;97768.91;5044615;28;20559;-62
2023/10/09 12:30:50;;;;;;;11.35;3.78;;;;;;;22.57;34.21;97770.22;5049863;28;20549;-61
2023/10/09 12:33:19;;;;;;;10.10;3.70;;;;;;;22.66;33.84;97778.47;5043042;28;20037;-61
2023/10/09 12:35:47;;;;;;;7.43;2.95;;;;;;;22.78;32.74;97785.34;5044443;28;20049;-61
2023/10/09 12:38:18;;;;;;;10.82;3.42;;;;;;;22.82;33.26;97780.78;5050580;28;20036;-61
2023/10/09 12:40:51;;;;;;;10.65;3.58;;;;;;;22.83;33.22;97779.66;5035383;28;20839;-61
2023/10/09 12:43:22;;;;;;;8.98;4.22;;;;;;;22.85;33.59;97778.19;5040396;28;20507;-61
2023/10/09 12:45:48;;;;;;;;;;;;;;;22.97;33.26;97785.81;5050398;28;20044;-61
2023/10/09 12:48:15;;;;;;;9.60;3.38;;;;;;;23.03;33.75;97789.22;5039851;28;19929;-61
2023/10/09 12:50:41;;;;;;;8.02;3.67;;;;;;;23.00;33.58;97787.94;5039382;28;20069;-61
2023/10/09 12:53:08;;;;;;;11.40;3.63;;;;;;;23.02;34.52;97781.28;5041091;28;20048;-61
2023/10/09 12:55:40;;;;;;;13.63;4.28;;;;;;;22.99;32.71;97786.31;5046148;28;20045;-61
2023/10/09 12:58:08;;;;;;;11.82;3.95;;;;;;;22.97;31.87;97772.00;5043587;28;20037;-61
2023/10/09 13:00:54;;;;;;;13.20;5.25;;;;;;;22.97;32.02;97776.75;5052078;28;20049;-62
2023/10/09 13:03:28;;;;;;;10.23;4.13;;;;;;;23.22;32.03;97782.59;5038007;28;20037;-61
2023/10/09 13:05:54;;;;;;;16.00;4.35;;;;;;;23.50;31.08;97773.97;5040738;28;20128;-61
2023/10/09 13:08:23;;;;;;;17.92;5.93;;;;;;;23.78;30.58;97768.03;5045358;28;20040;-61
2023/10/09 13:11:00;;;;;;;11.65;3.97;;;;;;;23.98;31.32;97760.97;5037471;28;20688;-62
2023/10/09 13:13:39;;;;;;;13.13;4.25;;;;;;;24.06;30.05;97759.31;5044384;28;20102;-61
2023/10/09 13:16:12;;;;;;;10.77;4.70;;;;;;;24.14;29.34;97757.69;5042582;28;20082;-61
2023/10/09 13:18:40;;;;;;;11.40;4.75;;;;;;;24.35;30.49;97752.19;5044667;28;20053;-61
2023/10/09 13:21:07;;;;;;;16.27;5.55;;;;;;;24.20;28.09;97742.53;5047554;28;20522;-61
2023/10/09 13:23:46;;;;;;;16.13;5.43;;;;;;;24.28;29.23;97749.97;5046002;28;20095;-61
2023/10/09 13:26:51;;;;;;;12.33;4.30;;;;;;;24.39;29.74;97744.03;5041993;28;20044;-60
2023/10/09 13:29:11;;;;;;;18.23;4.95;;;;;;;24.53;29.88;97755.69;5051399;28;20356;-61
2023/10/09 13:31:40;;;;;;;13.50;5.05;;;;;;;24.46;29.04;97757.38;5043848;28;20110;-61
2023/10/09 13:34:09;;;;;;;9.50;4.43;;;;;;;24.57;28.27;97766.88;5040386;28;20053;-61
2023/10/09 13:36:37;;;;;;;13.20;6.43;;;;;;;24.88;27.14;97764.91;5042931;28;20041;-61
2023/10/09 13:42:06;;;;;;;14.73;6.00;;;;;;;26.54;26.05;97757.94;5042063;28;20052;-61
2023/10/09 13:44:34;;;;;;;12.93;5.28;;;;;;;26.86;24.81;97757.28;5045820;28;20048;-61
2023/10/09 13:47:05;;;;;;;10.02;5.18;;;;;;;26.77;23.93;97753.81;5047316;28;20041;-61
2023/10/09 13:49:32;;;;;;;11.88;5.22;;;;;;;27.05;23.82;97756.66;5050764;28;20116;-62
2023/10/09 13:52:06;;;;;;;12.98;5.47;;;;;;;26.53;24.12;97753.53;5049641;28;20048;-61
2023/10/09 13:57:03;;;;;;;13.75;6.25;;;;;;;26.71;24.14;97753.25;5041780;28;20069;-61
2023/10/09 13:59:31;;;;;;;14.27;5.72;;;;;;;26.14;24.84;97748.31;5047703;28;20045;-61
2023/10/09 14:01:59;;;;;;;13.25;5.10;;;;;;;26.62;25.83;97736.75;5047510;28;20119;-61
2023/10/09 14:04:26;;;;;;;11.40;5.25;;;;;;;26.38;25.07;97749.50;5037467;28;20128;-61
2023/10/09 14:06:56;;;;;;;10.18;4.82;;;;;;;26.03;25.64;97741.63;5033843;28;20069;-62
2023/10/09 14:09:28;;;;;;;16.40;5.50;;;;;;;25.74;25.25;97740.66;5035300;28;20042;-61
2023/10/09 14:12:05;;;;;;;12.07;5.50;;;;;;;25.63;26.48;97730.00;5044187;28;20482;-62
2023/10/09 14:14:38;;;;;;;13.05;5.72;;;;;;;25.41;27.02;97728.41;5040694;28;20131;-63
2023/10/09 14:17:13;;;;;;;13.70;4.95;;;;;;;25.74;26.56;97733.16;5035086;28;20045;-62
2023/10/09 14:19:49;;;;;;;12.57;5.53;;;;;;;25.64;26.29;97728.03;5040976;28;20047;-62
2023/10/09 14:22:18;;;;;;;13.70;5.50;;;;;;;25.73;26.69;97731.53;5048831;28;20068;-62
2023/10/09 14:24:46;;;;;;;12.80;6.07;;;;;;;25.63;27.44;97724.47;5040810;28;20056;-62
2023/10/09 14:27:19;;;;;;;18.80;5.30;;;;;;;25.20;28.11;97718.19;5039992;28;20051;-62
2023/10/09 14:29:47;;;;;;;12.20;5.05;;;;;;;25.28;28.34;97722.84;5036003;28;20044;-62
2023/10/09 14:32:14;;;;;;;9.88;4.38;;;;;;;24.89;26.70;97723.03;5048214;28;20044;-63
2023/10/09 14:34:54;;;;;;;13.93;5.03;;;;;;;24.68;27.62;97723.00;5042251;28;20067;-61
2023/10/09 14:37:21;;;;;;;13.32;4.97;;;;;;;24.62;26.61;97725.16;5045735;28;20712;-62
2023/10/09 14:39:50;;;;;;;11.07;4.70;;;;;;;24.28;26.76;97718.69;5042233;28;20081;-62
2023/10/09 14:42:17;;;;;;;10.35;4.35;;;;;;;24.37;29.19;97716.72;5034635;28;20033;-62
2023/10/09 14:44:47;;;;;;;13.38;4.45;;;;;;;24.26;26.29;97718.25;5047249;28;20087;-62
2023/10/09 14:47:14;;;;;;;13.50;5.43;;;;;;;24.31;26.95;97717.22;5049751;28;20119;-62
2023/10/09 14:49:46;;;;;;;13.65;4.65;;;;;;;24.11;26.62;97712.16;5045217;28;20115;-62
2023/10/09 14:52:18;;;;;;;11.10;3.75;;;;;;;24.21;26.85;97708.16;5040130;28;20452;-62
2023/10/09 14:54:45;;;;;;;13.30;4.75;;;;;;;24.41;27.77;97714.09;5032568;28;20523;-62